Terminal Aerodrome Forecast
Issued by NWS Cleveland, OH

Home | Current Version | Previous Version | Graphics & Text | Print | Product List | Glossary Off
Versions: 1 2 3 4 5 6 7 8 9 10 11 12 13

284
FTUS41 KCLE 191310 AAA
TAFYNG
TAF AMD
KYNG 191310Z 1913/2012 24006KT 5SM BR SCT100
     FM191500 28008KT P6SM BKN250
     FM200000 34005KT P6SM SCT250=

USA.gov is the U.S. government's official web portal to all federal, state and local government web resources and services.